createdAt,value
2019-02-22T00:01:35.396Z,7.15
2019-02-22T00:04:03.875Z,7.13
2019-02-22T00:06:32.383Z,7.18
2019-02-22T00:09:00.883Z,7.04
2019-02-22T00:11:29.440Z,6.86
2019-02-22T00:13:57.960Z,6.93
2019-02-22T00:16:26.457Z,6.81
2019-02-22T00:18:55.056Z,6.74
2019-02-22T00:21:23.554Z,6.78
2019-02-22T00:23:52.155Z,6.83
2019-02-22T00:26:20.619Z,6.95
2019-02-22T00:28:49.121Z,7.07
2019-02-22T00:31:17.728Z,6.88
2019-02-22T00:33:46.233Z,6.85
2019-02-22T00:36:14.806Z,6.88
2019-02-22T00:38:43.290Z,7.03
2019-02-22T00:41:11.787Z,6.94
2019-02-22T00:43:40.298Z,6.98
2019-02-22T00:46:08.806Z,7.01
2019-02-22T00:48:37.370Z,7.00
2019-02-22T00:51:05.874Z,7.06
2019-02-22T00:53:34.375Z,6.89
2019-02-22T00:56:02.890Z,6.93
2019-02-22T00:58:31.383Z,7.05
2019-02-22T01:00:59.924Z,7.08
2019-02-22T01:03:28.422Z,6.88
2019-02-22T01:05:56.947Z,6.91
2019-02-22T01:08:25.466Z,6.73
2019-02-22T01:10:53.985Z,6.70
2019-02-22T01:13:22.564Z,6.69
2019-02-22T01:15:51.088Z,6.51
2019-02-22T01:18:19.594Z,6.58
2019-02-22T01:20:54.419Z,6.54
2019-02-22T01:23:18.331Z,6.34
2019-02-22T01:25:46.898Z,6.35
2019-02-22T01:28:15.407Z,6.50
2019-02-22T01:30:43.917Z,6.70
2019-02-22T01:33:12.446Z,6.83
2019-02-22T01:35:40.949Z,6.90
2019-02-22T01:38:09.528Z,7.09
2019-02-22T01:40:43.831Z,7.15
2019-02-22T01:43:08.289Z,7.19
2019-02-22T01:45:36.803Z,7.17
2019-02-22T01:48:05.298Z,7.15
2019-02-22T01:50:33.840Z,7.33
2019-02-22T01:53:02.341Z,7.33
2019-02-22T01:55:30.842Z,7.28
2019-02-22T01:57:59.346Z,7.20
2019-02-22T02:00:27.850Z,7.19
2019-02-22T02:02:56.406Z,7.14
2019-02-22T02:05:24.909Z,7.14
2019-02-22T02:07:53.413Z,7.36
2019-02-22T02:10:21.906Z,7.18
2019-02-22T02:12:50.418Z,7.23
2019-02-22T02:15:18.946Z,6.98
2019-02-22T02:17:47.447Z,6.88
2019-02-22T02:20:16.025Z,6.86
2019-02-22T02:22:44.576Z,6.85
2019-02-22T02:25:13.084Z,6.93
2019-02-22T02:27:41.635Z,6.85
2019-02-22T02:30:10.443Z,6.94
2019-02-22T02:32:38.954Z,6.76
2019-02-22T02:35:07.456Z,6.73
2019-02-22T02:37:35.954Z,6.76
2019-02-22T02:40:05.824Z,6.87
2019-02-22T02:42:34.304Z,6.86
2019-02-22T02:45:02.908Z,6.76
2019-02-22T02:47:31.418Z,6.73
2019-02-22T02:49:59.976Z,6.76
2019-02-22T02:52:28.518Z,6.69
2019-02-22T02:54:57.017Z,6.60
2019-02-22T02:57:25.531Z,6.66
2019-02-22T02:59:54.035Z,6.55
2019-02-22T03:02:24.117Z,6.37
2019-02-22T03:04:52.652Z,6.48
2019-02-22T03:07:28.721Z,6.48
2019-02-22T03:09:57.265Z,6.36
2019-02-22T03:12:25.760Z,6.38
2019-02-22T03:14:54.263Z,6.37
2019-02-22T03:17:22.773Z,6.21
2019-02-22T03:19:51.269Z,6.14
2019-02-22T03:22:19.836Z,6.09
2019-02-22T03:24:48.336Z,6.07
2019-02-22T03:27:16.838Z,6.06
2019-02-22T03:29:45.345Z,6.18
2019-02-22T03:32:13.840Z,6.34
2019-02-22T03:34:42.391Z,6.19
2019-02-22T03:37:10.888Z,6.34
2019-02-22T03:39:39.382Z,6.17
2019-02-22T03:42:07.900Z,6.14
2019-02-22T03:44:36.408Z,6.11
2019-02-22T03:47:04.906Z,6.14
2019-02-22T03:49:33.468Z,6.19
2019-02-22T03:52:03.548Z,6.39
2019-02-22T03:54:32.049Z,6.33
2019-02-22T03:57:00.556Z,6.47
2019-02-22T03:59:29.051Z,6.45
2019-02-22T04:01:57.597Z,6.57
2019-02-22T04:04:26.096Z,6.58
2019-02-22T04:06:54.591Z,6.49
2019-02-22T04:09:23.096Z,6.44
2019-02-22T04:11:51.590Z,6.65
2019-02-22T04:14:20.126Z,6.50
2019-02-22T04:16:48.625Z,6.33
2019-02-22T04:19:17.122Z,6.27
2019-02-22T04:21:45.627Z,6.32
2019-02-22T04:24:14.123Z,6.33
2019-02-22T04:26:42.687Z,6.34
2019-02-22T04:29:11.192Z,6.42
2019-02-22T04:31:39.702Z,6.46
2019-02-22T04:34:08.199Z,6.49
2019-02-22T04:36:36.691Z,6.38
2019-02-22T04:39:08.009Z,6.49
2019-02-22T04:41:36.512Z,6.78
2019-02-22T04:44:05.004Z,6.67
2019-02-22T04:46:33.529Z,6.85
2019-02-22T04:49:02.053Z,7.04
2019-02-22T04:51:30.626Z,7.18
2019-02-22T04:53:59.114Z,6.93
2019-02-22T04:56:27.614Z,6.89
2019-02-22T04:58:56.136Z,6.82
2019-02-22T05:01:24.640Z,6.88
2019-02-22T05:03:53.183Z,7.07
2019-02-22T05:06:21.691Z,6.85
2019-02-22T05:08:50.200Z,6.59
2019-02-22T05:11:18.706Z,6.78
2019-02-22T05:13:47.205Z,6.73
2019-02-22T05:16:15.751Z,6.75
2019-02-22T05:18:44.251Z,6.93
2019-02-22T05:21:12.754Z,6.95
2019-02-22T05:23:41.277Z,7.06
2019-02-22T05:26:09.782Z,7.25
2019-02-22T05:28:38.327Z,7.29
2019-02-22T05:31:06.839Z,7.03
2019-02-22T05:33:35.336Z,7.09
2019-02-22T05:36:03.842Z,7.12
2019-02-22T05:38:32.346Z,7.09
2019-02-22T05:41:00.893Z,7.17
2019-02-22T05:43:29.393Z,7.20
2019-02-22T05:45:57.889Z,7.29
2019-02-22T05:48:26.400Z,7.50
2019-02-22T05:50:54.905Z,7.79
2019-02-22T05:53:23.481Z,7.84
2019-02-22T05:55:51.984Z,7.91
2019-02-22T05:58:20.483Z,8.04
2019-02-22T06:00:49.509Z,8.11
2019-02-22T06:03:18.076Z,8.06
2019-02-22T06:05:46.631Z,8.13
2019-02-22T06:08:15.131Z,8.32
2019-02-22T06:10:43.639Z,8.46
2019-02-22T06:13:12.155Z,8.63
2019-02-22T06:15:40.658Z,8.68
2019-02-22T06:18:09.200Z,8.77
2019-02-22T06:20:37.700Z,8.83
2019-02-22T06:23:06.202Z,9.17
2019-02-22T06:25:34.742Z,9.28
2019-02-22T06:28:03.224Z,9.26
2019-02-22T06:30:31.765Z,9.23
2019-02-22T06:33:00.303Z,9.32
2019-02-22T06:35:28.773Z,9.31
2019-02-22T06:37:57.285Z,9.38
2019-02-22T06:40:25.783Z,9.73
2019-02-22T06:42:54.375Z,9.60
2019-02-22T06:45:22.875Z,9.56
2019-02-22T06:47:51.376Z,9.47
2019-02-22T06:50:19.948Z,9.50
2019-02-22T06:52:48.448Z,9.72
2019-02-22T06:55:17.008Z,9.75
2019-02-22T06:57:45.506Z,9.72
2019-02-22T07:00:14.017Z,10.05
2019-02-22T07:02:42.528Z,10.14
2019-02-22T07:05:11.035Z,10.20
2019-02-22T07:07:39.656Z,10.25
2019-02-22T07:10:10.368Z,10.32
2019-02-22T07:12:43.444Z,10.41
2019-02-22T07:15:11.955Z,10.27
2019-02-22T07:17:40.459Z,10.29
2019-02-22T07:20:10.577Z,10.42
2019-02-22T07:22:39.086Z,10.18
2019-02-22T07:25:10.341Z,10.17
2019-02-22T07:27:38.850Z,10.08
2019-02-22T07:30:10.061Z,10.30
2019-02-22T07:32:38.581Z,10.11
2019-02-22T07:35:09.675Z,10.20
2019-02-22T07:37:38.260Z,10.18
2019-02-22T07:40:06.883Z,10.47
2019-02-22T07:42:35.390Z,10.61
2019-02-22T07:45:03.949Z,10.55
2019-02-22T07:47:32.456Z,10.26
2019-02-22T07:50:00.960Z,10.19
2019-02-22T07:52:29.477Z,10.13
2019-02-22T07:54:57.989Z,10.27
2019-02-22T07:57:26.543Z,10.16
2019-02-22T07:59:55.055Z,10.23
2019-02-22T08:02:23.565Z,10.23
2019-02-22T08:04:52.109Z,10.16
2019-02-22T08:07:20.627Z,10.15
2019-02-22T08:09:49.144Z,10.16
2019-02-22T08:12:17.710Z,10.19
2019-02-22T08:14:46.288Z,10.19
2019-02-22T08:17:14.889Z,10.40
2019-02-22T08:19:43.446Z,10.67
2019-02-22T08:22:11.953Z,10.71
2019-02-22T08:24:40.460Z,10.85
2019-02-22T08:27:09.025Z,10.78
2019-02-22T08:29:38.415Z,10.84
2019-02-22T08:32:07.106Z,10.90
2019-02-22T08:34:35.648Z,11.01
2019-02-22T08:37:04.155Z,11.05
2019-02-22T08:39:32.716Z,11.16
2019-02-22T08:42:01.224Z,11.18
2019-02-22T08:44:29.738Z,11.29
2019-02-22T08:46:58.239Z,11.37
2019-02-22T08:49:26.801Z,11.30
2019-02-22T08:51:55.314Z,11.38
2019-02-22T08:54:23.825Z,11.36
2019-02-22T08:56:52.372Z,11.49
2019-02-22T08:59:20.877Z,11.24
2019-02-22T09:01:49.382Z,11.34
2019-02-22T09:04:18.326Z,11.42
2019-02-22T09:06:47.154Z,11.40
2019-02-22T09:09:15.722Z,11.36
2019-02-22T09:11:44.279Z,11.24
2019-02-22T09:14:12.783Z,11.19
2019-02-22T09:16:41.289Z,11.17
2019-02-22T09:19:09.853Z,11.12
2019-02-22T09:21:38.362Z,11.09
2019-02-22T09:24:06.909Z,11.08
2019-02-22T09:26:35.469Z,11.01
2019-02-22T09:29:03.976Z,11.12
2019-02-22T09:31:32.546Z,11.11
2019-02-22T09:34:01.083Z,11.07
2019-02-22T09:36:29.593Z,10.96
2019-02-22T09:38:58.140Z,11.10
2019-02-22T09:41:26.645Z,11.05
2019-02-22T09:43:55.908Z,11.02
2019-02-22T09:46:24.442Z,11.04
2019-02-22T09:48:52.973Z,11.03
2019-02-22T09:51:21.523Z,10.97
2019-02-22T09:53:50.033Z,11.01
2019-02-22T09:56:18.537Z,10.74
2019-02-22T09:58:47.066Z,10.74
2019-02-22T10:01:15.567Z,10.73
2019-02-22T10:03:44.134Z,10.82
2019-02-22T10:06:12.642Z,10.66
2019-02-22T10:08:41.149Z,10.57
2019-02-22T10:11:09.675Z,10.78
2019-02-22T10:13:38.209Z,10.80
2019-02-22T10:16:06.803Z,10.85
2019-02-22T10:18:35.295Z,10.85
2019-02-22T10:21:03.805Z,10.80
2019-02-22T10:23:32.317Z,10.73
2019-02-22T10:26:00.823Z,10.71
2019-02-22T10:28:29.391Z,10.71
2019-02-22T10:30:57.893Z,10.67
2019-02-22T10:33:36.405Z,10.75
2019-02-22T10:35:56.642Z,10.70
2019-02-22T10:38:25.151Z,10.70
2019-02-22T10:40:53.710Z,10.62
2019-02-22T10:43:22.218Z,10.67
2019-02-22T10:45:50.726Z,10.70
2019-02-22T10:48:19.252Z,10.54
2019-02-22T10:50:48.097Z,10.69
2019-02-22T10:53:16.797Z,10.72
2019-02-22T10:55:45.312Z,10.64
2019-02-22T10:58:13.819Z,10.64
2019-02-22T11:00:42.344Z,10.51
2019-02-22T11:03:10.856Z,10.48
2019-02-22T11:05:39.413Z,10.52
2019-02-22T11:08:07.920Z,10.61
2019-02-22T11:10:36.425Z,10.57
2019-02-22T11:13:04.942Z,10.57
2019-02-22T11:15:33.450Z,10.65
2019-02-22T11:18:02.044Z,10.69
2019-02-22T11:20:30.624Z,10.72
2019-02-22T11:22:59.134Z,10.85
2019-02-22T11:25:27.667Z,11.13
2019-02-22T11:27:56.172Z,11.40
2019-02-22T11:30:24.800Z,11.40
2019-02-22T11:32:53.288Z,11.49
2019-02-22T11:35:23.473Z,11.39
2019-02-22T11:37:52.223Z,11.50
2019-02-22T11:40:20.738Z,11.43
2019-02-22T11:42:49.391Z,11.50
2019-02-22T11:45:17.897Z,11.52
2019-02-22T11:47:46.407Z,11.67
2019-02-22T11:50:14.927Z,11.80
2019-02-22T11:52:43.437Z,11.73
2019-02-22T11:55:12.188Z,11.85
2019-02-22T11:57:40.702Z,11.89
2019-02-22T12:00:15.928Z,11.93
2019-02-22T12:02:45.457Z,12.01
2019-02-22T12:05:14.338Z,12.05
2019-02-22T12:07:42.893Z,12.34
2019-02-22T12:10:11.403Z,12.32
2019-02-22T12:12:39.908Z,12.23
2019-02-22T12:15:14.763Z,12.14
2019-02-22T12:17:43.270Z,12.19
2019-02-22T12:20:12.020Z,11.95
2019-02-22T12:22:40.527Z,11.96
2019-02-22T12:25:13.074Z,12.15
2019-02-22T12:27:41.597Z,12.17
2019-02-22T12:30:15.159Z,11.81
2019-02-22T12:32:43.714Z,11.79
2019-02-22T12:35:12.232Z,11.47
2019-02-22T12:37:40.749Z,11.46
2019-02-22T12:40:11.225Z,11.38
2019-02-22T12:42:39.734Z,11.27
2019-02-22T12:45:12.361Z,11.10
2019-02-22T12:47:40.876Z,11.13
2019-02-22T12:50:11.438Z,11.13
2019-02-22T12:52:39.953Z,11.20
2019-02-22T12:55:09.568Z,11.12
2019-02-22T12:57:38.121Z,11.02
2019-02-22T13:00:09.757Z,11.06
2019-02-22T13:02:38.266Z,11.10
2019-02-22T13:05:09.037Z,11.17
2019-02-22T13:07:37.640Z,11.19
2019-02-22T13:10:07.305Z,11.04
2019-02-22T13:12:35.811Z,10.94
2019-02-22T13:15:13.631Z,10.94
2019-02-22T13:17:36.167Z,10.99
2019-02-22T13:20:05.578Z,10.74
2019-02-22T13:22:34.132Z,10.85
2019-02-22T13:25:02.635Z,10.89
2019-02-22T13:27:31.144Z,10.89
2019-02-22T13:29:59.659Z,10.87
2019-02-22T13:32:28.171Z,10.91
2019-02-22T13:34:56.791Z,10.74
2019-02-22T13:37:25.524Z,10.54
2019-02-22T13:39:54.083Z,10.57
2019-02-22T13:42:22.606Z,10.58
2019-02-22T13:44:51.124Z,10.78
2019-02-22T13:47:19.680Z,10.88
2019-02-22T13:49:48.188Z,10.86
2019-02-22T13:52:16.699Z,11.08
2019-02-22T13:54:45.224Z,10.91
2019-02-22T13:57:13.722Z,11.08
2019-02-22T13:59:42.285Z,10.80
2019-02-22T14:02:10.792Z,10.90
2019-02-22T14:04:39.303Z,10.88
2019-02-22T14:07:07.822Z,10.88
2019-02-22T14:09:36.337Z,10.95
2019-02-22T14:12:04.888Z,11.01
2019-02-22T14:14:33.396Z,10.83
2019-02-22T14:17:01.904Z,11.12
2019-02-22T14:19:30.429Z,11.15
2019-02-22T14:21:58.955Z,11.17
2019-02-22T14:24:27.517Z,11.22
2019-02-22T14:26:56.027Z,11.18
2019-02-22T14:29:24.538Z,11.08
2019-02-22T14:31:53.090Z,10.95
2019-02-22T14:34:21.643Z,10.91
2019-02-22T14:36:50.314Z,10.79
2019-02-22T14:39:18.765Z,10.75
2019-02-22T14:41:47.275Z,10.73
2019-02-22T14:44:15.830Z,10.56
2019-02-22T14:46:44.314Z,10.43
2019-02-22T14:49:12.866Z,10.47
2019-02-22T14:51:41.407Z,10.29
2019-02-22T14:54:09.931Z,10.12
2019-02-22T14:56:38.451Z,10.00
2019-02-22T14:59:06.961Z,9.88
2019-02-22T15:01:35.781Z,9.88
2019-02-22T15:04:06.267Z,9.84
2019-02-22T15:06:34.779Z,9.80
2019-02-22T15:09:04.998Z,9.70
2019-02-22T15:11:33.506Z,9.69
2019-02-22T15:14:02.060Z,9.68
2019-02-22T15:16:50.456Z,9.70
2019-02-22T15:19:22.079Z,9.70
2019-02-22T15:21:49.859Z,9.74
2019-02-22T15:24:18.368Z,9.80
2019-02-22T15:26:47.104Z,9.53
2019-02-22T15:29:15.565Z,9.36
2019-02-22T15:31:44.128Z,9.29
2019-02-22T15:34:12.638Z,9.05
2019-02-22T15:36:41.144Z,9.17
2019-02-22T15:39:09.661Z,9.26
2019-02-22T15:41:38.167Z,9.14
2019-02-22T15:44:06.783Z,9.28
2019-02-22T15:46:37.051Z,9.07
2019-02-22T15:49:05.570Z,8.65
2019-02-22T15:51:34.092Z,8.63
2019-02-22T15:54:02.597Z,8.53
2019-02-22T15:56:31.140Z,8.35
2019-02-22T15:58:59.643Z,8.38
2019-02-22T16:01:28.170Z,8.41
2019-02-22T16:04:07.470Z,8.32
2019-02-22T16:06:36.015Z,8.24
2019-02-22T16:09:05.185Z,8.21
2019-02-22T16:11:33.709Z,8.24
2019-02-22T16:14:02.211Z,8.35
2019-02-22T16:16:30.733Z,8.18
2019-02-22T16:18:59.298Z,8.14
2019-02-22T16:21:27.804Z,8.12
2019-02-22T16:23:56.315Z,8.11
2019-02-22T16:26:26.426Z,7.97
2019-02-22T16:28:54.927Z,8.11
2019-02-22T16:31:23.433Z,7.98
2019-02-22T16:33:51.980Z,7.87
2019-02-22T16:36:20.502Z,7.90
2019-02-22T16:38:49.071Z,8.00
2019-02-22T16:41:17.591Z,7.99
2019-02-22T16:43:46.113Z,7.89
2019-02-22T16:46:14.651Z,7.92
2019-02-22T16:48:43.196Z,7.93
2019-02-22T16:51:11.741Z,8.06
2019-02-22T16:53:40.260Z,8.03
2019-02-22T16:56:09.683Z,8.02
2019-02-22T16:58:38.216Z,8.07
2019-02-22T17:01:06.734Z,7.89
2019-02-22T17:03:35.320Z,7.95
2019-02-22T17:06:03.834Z,7.97
2019-02-22T17:08:32.333Z,7.97
2019-02-22T17:11:00.859Z,7.98
2019-02-22T17:13:29.465Z,7.90
2019-02-22T17:15:58.030Z,7.89
2019-02-22T17:18:26.552Z,8.07
2019-02-22T17:20:55.075Z,8.00
2019-02-22T17:23:23.589Z,7.96
2019-02-22T17:25:52.111Z,7.94
2019-02-22T17:28:20.660Z,7.87
2019-02-22T17:30:49.184Z,7.85
2019-02-22T17:33:17.680Z,7.70
2019-02-22T17:35:46.197Z,7.76
2019-02-22T17:38:14.699Z,7.71
2019-02-22T17:40:43.254Z,7.66
2019-02-22T17:43:11.782Z,7.90
2019-02-22T17:45:40.263Z,7.84
2019-02-22T17:48:08.777Z,7.83
2019-02-22T17:50:37.281Z,7.98
2019-02-22T17:53:05.848Z,7.83
2019-02-22T17:55:34.382Z,7.92
2019-02-22T17:58:02.905Z,7.90
2019-02-22T18:00:31.412Z,7.72
2019-02-22T18:02:59.915Z,7.88
2019-02-22T18:05:28.476Z,7.68
2019-02-22T18:07:56.979Z,7.73
2019-02-22T18:10:25.497Z,7.76
2019-02-22T18:12:54.005Z,7.74
2019-02-22T18:15:22.510Z,7.79
2019-02-22T18:17:51.057Z,7.84
2019-02-22T18:20:19.571Z,7.83
2019-02-22T18:22:48.068Z,7.67
2019-02-22T18:25:16.582Z,7.63
2019-02-22T18:27:45.115Z,7.57
2019-02-22T18:30:16.061Z,7.56
2019-02-22T18:32:44.589Z,7.56
2019-02-22T18:35:13.097Z,7.44
2019-02-22T18:37:41.611Z,7.33
2019-02-22T18:40:21.366Z,7.32
2019-02-22T18:42:49.938Z,7.27
2019-02-22T18:45:18.449Z,7.24
2019-02-22T18:47:46.956Z,7.23
2019-02-22T18:50:15.460Z,7.28
2019-02-22T18:52:43.969Z,7.28
2019-02-22T18:55:12.513Z,7.20
2019-02-22T18:57:41.026Z,7.26
2019-02-22T19:00:13.760Z,7.29
2019-02-22T19:02:42.276Z,7.32
2019-02-22T19:05:10.804Z,7.28
2019-02-22T19:07:39.402Z,7.24
2019-02-22T19:10:18.794Z,7.26
2019-02-22T19:12:47.381Z,7.26
2019-02-22T19:15:15.979Z,7.18
2019-02-22T19:17:44.458Z,7.21
2019-02-22T19:20:18.090Z,7.28
2019-02-22T19:22:46.591Z,7.19
2019-02-22T19:25:15.211Z,7.19
2019-02-22T19:27:46.339Z,7.12
2019-02-22T19:30:22.276Z,7.20
2019-02-22T19:32:50.791Z,7.06
2019-02-22T19:35:19.314Z,7.03
2019-02-22T19:37:47.863Z,7.12
2019-02-22T19:40:19.491Z,6.98
2019-02-22T19:42:48.060Z,6.92
2019-02-22T19:45:16.574Z,7.01
2019-02-22T19:47:45.069Z,6.98
2019-02-22T19:50:14.382Z,6.99
2019-02-22T19:52:42.883Z,6.98
2019-02-22T19:55:18.368Z,6.96
2019-02-22T19:57:46.874Z,7.00
2019-02-22T20:00:16.472Z,7.01
2019-02-22T20:02:45.043Z,7.04
2019-02-22T20:05:14.570Z,7.08
2019-02-22T20:07:43.113Z,7.11
2019-02-22T20:10:19.178Z,7.06
2019-02-22T20:12:47.719Z,7.08
2019-02-22T20:15:17.223Z,7.20
2019-02-22T20:17:53.903Z,7.11
2019-02-22T20:20:20.641Z,7.29
2019-02-22T20:22:49.145Z,7.23
2019-02-22T20:25:17.676Z,7.27
2019-02-22T20:27:46.169Z,7.32
2019-02-22T20:30:19.490Z,7.30
2019-02-22T20:32:47.988Z,7.29
2019-02-22T20:35:27.092Z,7.36
2019-02-22T20:37:55.637Z,7.36
2019-02-22T20:40:24.132Z,7.34
2019-02-22T20:42:52.654Z,7.28
2019-02-22T20:45:21.153Z,7.24
2019-02-22T20:47:49.670Z,7.25
2019-02-22T20:50:18.223Z,7.24
2019-02-22T20:52:46.734Z,7.39
2019-02-22T20:55:15.732Z,7.33
2019-02-22T20:57:44.233Z,7.40
2019-02-22T21:00:23.593Z,7.42
2019-02-22T21:02:52.135Z,7.33
2019-02-22T21:05:20.638Z,7.33
2019-02-22T21:07:49.132Z,7.38
2019-02-22T21:10:21.675Z,7.43
2019-02-22T21:12:50.174Z,7.47
2019-02-22T21:15:18.904Z,7.52
2019-02-22T21:17:47.394Z,7.59
2019-02-22T21:20:17.696Z,7.76
2019-02-22T21:22:46.204Z,7.69
2019-02-22T21:25:14.712Z,7.75
2019-02-22T21:27:43.252Z,7.68
2019-02-22T21:30:17.346Z,7.52
2019-02-22T21:32:45.840Z,7.67
2019-02-22T21:35:14.360Z,7.59
2019-02-22T21:37:43.745Z,7.78
2019-02-22T21:40:13.021Z,7.84
2019-02-22T21:42:41.593Z,7.97
2019-02-22T21:45:14.166Z,8.02
2019-02-22T21:47:53.686Z,8.11
2019-02-22T21:50:16.430Z,7.67
2019-02-22T21:52:44.971Z,6.46
2019-02-22T21:55:15.585Z,5.45
2019-02-22T21:57:44.125Z,4.51
2019-02-22T22:00:17.990Z,4.09
2019-02-22T22:02:46.499Z,3.17
2019-02-22T22:05:15.035Z,2.71
2019-02-22T22:07:43.536Z,2.60
2019-02-22T22:10:12.026Z,2.52
2019-02-22T22:12:40.524Z,2.41
2019-02-22T22:15:11.234Z,2.23
2019-02-22T22:17:39.782Z,2.11
2019-02-22T22:20:09.470Z,2.11
2019-02-22T22:22:37.964Z,2.06
2019-02-22T22:25:09.386Z,2.01
2019-02-22T22:27:37.875Z,2.00
2019-02-22T22:30:11.542Z,1.98
2019-02-22T22:32:40.029Z,1.76
2019-02-22T22:35:10.823Z,1.76
2019-02-22T22:37:39.534Z,1.75
2019-02-22T22:40:10.730Z,1.75
2019-02-22T22:42:39.274Z,1.70
2019-02-22T22:45:15.561Z,1.70
2019-02-22T22:47:44.121Z,1.68
2019-02-22T22:50:14.117Z,1.75
2019-02-22T22:52:42.710Z,1.63
2019-02-22T22:55:11.614Z,1.49
2019-02-22T22:57:40.112Z,1.49
2019-02-22T23:00:40.277Z,1.57
2019-02-22T23:03:08.748Z,1.56
2019-02-22T23:05:37.288Z,1.62
2019-02-22T23:08:05.751Z,1.62
2019-02-22T23:10:34.242Z,1.64
2019-02-22T23:13:02.782Z,1.74
2019-02-22T23:15:31.285Z,1.69
2019-02-22T23:17:59.783Z,1.69
2019-02-22T23:20:28.286Z,1.66
2019-02-22T23:22:56.792Z,1.56
2019-02-22T23:25:25.350Z,1.56
2019-02-22T23:27:53.841Z,1.49
2019-02-22T23:30:22.341Z,1.46
2019-02-22T23:32:50.841Z,1.47
2019-02-22T23:35:19.335Z,1.47
2019-02-22T23:37:47.871Z,1.46
2019-02-22T23:40:16.364Z,1.46
2019-02-22T23:42:44.852Z,1.46
2019-02-22T23:45:13.405Z,1.35
2019-02-22T23:47:41.858Z,1.35
2019-02-22T23:50:10.401Z,1.17
2019-02-22T23:52:38.897Z,1.19
2019-02-22T23:55:07.395Z,1.19
2019-02-22T23:57:35.903Z,1.16
